createdAt,value
2022-12-03T00:01:40.140Z,18.80
2022-12-03T00:04:26.912Z,20.80
2022-12-03T00:07:13.523Z,21.50
2022-12-03T00:10:00.115Z,24.50
2022-12-03T00:12:46.843Z,23.10
2022-12-03T00:15:33.468Z,19.80
2022-12-03T00:18:20.439Z,21.60
2022-12-03T00:21:06.981Z,24.00
2022-12-03T00:23:53.782Z,22.30
2022-12-03T00:26:40.509Z,22.50
2022-12-03T00:29:27.113Z,20.10
2022-12-03T00:32:14.280Z,24.90
2022-12-03T00:35:01.698Z,20.50
2022-12-03T00:37:49.232Z,21.50
2022-12-03T00:40:35.977Z,17.30
2022-12-03T00:43:22.920Z,24.30
2022-12-03T00:46:09.636Z,21.00
2022-12-03T00:48:56.353Z,21.10
2022-12-03T00:51:43.050Z,21.20
2022-12-03T00:54:32.070Z,25.40
2022-12-03T00:57:19.333Z,21.60
2022-12-03T01:00:06.356Z,18.20
2022-12-03T01:02:53.833Z,21.70
2022-12-03T01:05:41.794Z,21.60
2022-12-03T01:08:29.071Z,20.40
2022-12-03T01:11:34.448Z,18.10
2022-12-03T01:14:21.579Z,21.60
2022-12-03T01:17:08.337Z,21.60
2022-12-03T01:19:55.402Z,19.60
2022-12-03T01:22:42.129Z,22.80
2022-12-03T01:25:28.988Z,17.40
2022-12-03T01:28:15.931Z,19.60
2022-12-03T01:31:21.461Z,16.90
2022-12-03T01:34:08.450Z,21.30
2022-12-03T01:36:55.085Z,17.00
2022-12-03T01:39:41.891Z,19.90
2022-12-03T01:42:30.218Z,18.50
2022-12-03T01:45:22.457Z,17.20
2022-12-03T01:48:09.840Z,21.10
2022-12-03T01:50:56.674Z,20.10
2022-12-03T01:53:43.992Z,22.40
2022-12-03T01:56:31.134Z,20.10
2022-12-03T01:59:18.877Z,24.30
2022-12-03T02:02:14.799Z,19.80
2022-12-03T02:05:01.770Z,19.60
2022-12-03T02:07:48.471Z,20.00
2022-12-03T02:10:37.367Z,17.30
2022-12-03T02:13:24.014Z,17.90
2022-12-03T02:16:10.751Z,21.20
2022-12-03T02:18:58.098Z,18.20
2022-12-03T02:21:50.988Z,16.20
2022-12-03T02:24:45.636Z,20.70
2022-12-03T02:27:32.716Z,23.10
2022-12-03T02:30:20.577Z,19.70
2022-12-03T02:33:07.422Z,18.40
2022-12-03T02:35:56.049Z,18.10
2022-12-03T02:38:46.901Z,22.20
2022-12-03T02:41:52.620Z,19.20
2022-12-03T02:44:39.613Z,22.00
2022-12-03T02:47:26.418Z,23.70
2022-12-03T02:50:17.704Z,20.20
2022-12-03T02:53:06.877Z,23.00
2022-12-03T02:55:54.720Z,19.10
2022-12-03T02:58:41.911Z,20.90
2022-12-03T03:01:29.117Z,22.60
2022-12-03T03:04:16.421Z,20.80
2022-12-03T03:07:03.196Z,18.10
2022-12-03T03:09:50.868Z,17.00
2022-12-03T03:12:39.458Z,21.80
2022-12-03T03:15:26.583Z,21.90
2022-12-03T03:18:14.766Z,20.00
2022-12-03T03:21:02.329Z,17.10
2022-12-03T03:23:52.296Z,22.90
2022-12-03T03:26:39.430Z,22.30
2022-12-03T03:29:26.042Z,16.30
2022-12-03T03:32:12.896Z,20.20
2022-12-03T03:34:59.922Z,21.50
2022-12-03T03:37:46.681Z,22.50
2022-12-03T03:40:33.620Z,19.10
2022-12-03T03:43:22.284Z,17.40
2022-12-03T03:46:09.156Z,20.50
2022-12-03T03:48:55.816Z,20.80
2022-12-03T03:51:42.476Z,20.40
2022-12-03T03:54:29.576Z,20.60
2022-12-03T03:57:16.253Z,21.00
2022-12-03T04:00:05.041Z,16.60
2022-12-03T04:02:53.160Z,19.80
2022-12-03T04:05:40.112Z,17.00
2022-12-03T04:08:26.699Z,20.90
2022-12-03T04:11:32.160Z,20.70
2022-12-03T04:14:19.251Z,19.10
2022-12-03T04:17:05.752Z,24.00
2022-12-03T04:19:52.932Z,21.20
2022-12-03T04:22:39.783Z,21.50
2022-12-03T04:25:45.326Z,22.20
2022-12-03T04:28:50.761Z,17.50
2022-12-03T04:31:56.528Z,18.40
2022-12-03T04:35:02.339Z,23.40
2022-12-03T04:37:49.448Z,22.10
2022-12-03T04:40:55.250Z,20.80
2022-12-03T04:44:02.315Z,21.10
2022-12-03T04:46:49.558Z,23.20
2022-12-03T04:49:37.620Z,24.60
2022-12-03T04:52:24.411Z,21.10
2022-12-03T04:55:11.422Z,22.90
2022-12-03T04:57:57.928Z,20.70
2022-12-03T05:00:45.118Z,19.80
2022-12-03T05:03:31.654Z,21.60
2022-12-03T05:06:18.755Z,21.50
2022-12-03T05:09:05.424Z,22.20
2022-12-03T05:11:52.368Z,17.40
2022-12-03T05:14:38.882Z,23.60
2022-12-03T05:17:25.758Z,24.00
2022-12-03T05:20:30.939Z,25.10
2022-12-03T05:23:18.031Z,22.90
2022-12-03T05:26:04.616Z,25.70
2022-12-03T05:28:51.717Z,24.80
2022-12-03T05:31:38.428Z,25.60
2022-12-03T05:34:25.258Z,22.70
2022-12-03T05:37:12.221Z,24.00
2022-12-03T05:39:59.276Z,23.70
2022-12-03T05:42:55.028Z,25.60
2022-12-03T05:45:43.303Z,31.60
2022-12-03T05:48:30.266Z,27.80
2022-12-03T05:51:17.001Z,25.20
2022-12-03T05:54:03.708Z,30.90
2022-12-03T05:56:50.295Z,27.30
2022-12-03T05:59:36.983Z,24.10
2022-12-03T06:02:24.101Z,25.70
2022-12-03T06:05:12.512Z,27.50
2022-12-03T06:07:59.493Z,26.00
2022-12-03T06:10:46.970Z,23.40
2022-12-03T06:13:33.993Z,23.20
2022-12-03T06:16:21.239Z,24.10
2022-12-03T06:19:08.010Z,21.70
2022-12-03T06:21:55.562Z,27.50
2022-12-03T06:24:42.528Z,22.90
2022-12-03T06:27:29.275Z,22.90
2022-12-03T06:30:16.287Z,26.90
2022-12-03T06:33:03.200Z,25.40
2022-12-03T06:35:49.786Z,20.30
2022-12-03T06:38:36.393Z,25.50
2022-12-03T06:41:23.569Z,21.80
2022-12-03T06:44:10.279Z,26.00
2022-12-03T06:46:57.229Z,27.10
2022-12-03T06:49:44.183Z,26.20
2022-12-03T06:52:31.179Z,25.10
2022-12-03T06:55:18.119Z,27.50
2022-12-03T06:58:05.441Z,25.40
2022-12-03T07:00:52.161Z,23.80
2022-12-03T07:03:39.161Z,18.80
2022-12-03T07:06:25.939Z,27.70
2022-12-03T07:09:12.816Z,27.40
2022-12-03T07:11:59.254Z,25.50
2022-12-03T07:14:46.308Z,25.60
2022-12-03T07:17:32.733Z,21.50
2022-12-03T07:20:20.103Z,16.30
2022-12-03T07:23:06.960Z,27.60
2022-12-03T07:25:54.125Z,23.10
2022-12-03T07:28:40.742Z,23.50
2022-12-03T07:31:28.046Z,21.90
2022-12-03T07:34:15.216Z,22.00
2022-12-03T07:37:02.412Z,24.40
2022-12-03T07:39:49.203Z,17.30
2022-12-03T07:42:36.130Z,22.40
2022-12-03T07:45:22.894Z,22.00
2022-12-03T07:48:10.103Z,15.70
2022-12-03T07:50:56.799Z,19.40
2022-12-03T07:53:43.796Z,27.20
2022-12-03T07:56:30.290Z,27.80
2022-12-03T07:59:17.458Z,25.50
2022-12-03T08:02:04.041Z,22.90
2022-12-03T08:04:51.428Z,24.10
2022-12-03T08:07:38.703Z,25.00
2022-12-03T08:10:25.871Z,16.90
2022-12-03T08:13:16.191Z,22.10
2022-12-03T08:16:12.331Z,27.00
2022-12-03T08:18:58.864Z,28.00
2022-12-03T08:21:46.121Z,25.60
2022-12-03T08:24:32.873Z,23.90
2022-12-03T08:27:20.198Z,21.80
2022-12-03T08:30:07.265Z,21.00
2022-12-03T08:32:54.116Z,22.60
2022-12-03T08:35:41.548Z,23.80
2022-12-03T08:41:57.035Z,34.00
2022-12-03T08:44:44.186Z,23.30
2022-12-03T08:47:30.851Z,29.30
2022-12-03T08:50:31.292Z,29.90
2022-12-03T08:53:38.452Z,30.60
2022-12-03T09:00:19.814Z,26.30
2022-12-03T09:03:11.076Z,35.20
2022-12-03T09:05:57.877Z,24.30
2022-12-03T09:08:44.626Z,28.70
2022-12-03T09:11:31.463Z,28.50
2022-12-03T09:14:21.110Z,29.40
2022-12-03T09:17:08.094Z,31.90
2022-12-03T09:19:55.236Z,28.50
2022-12-03T09:22:42.488Z,28.90
2022-12-03T09:25:29.243Z,31.70
2022-12-03T09:28:16.411Z,30.20
2022-12-03T09:31:03.449Z,25.70
2022-12-03T09:33:50.223Z,21.90
2022-12-03T09:36:36.791Z,29.80
2022-12-03T09:39:23.717Z,29.40
2022-12-03T09:42:10.875Z,32.30
2022-12-03T09:44:57.571Z,33.70
2022-12-03T09:47:46.124Z,35.10
2022-12-03T09:50:33.315Z,26.60
2022-12-03T09:53:21.820Z,40.70
2022-12-03T09:56:12.415Z,33.30
2022-12-03T09:58:59.405Z,28.20
2022-12-03T10:01:46.434Z,35.90
2022-12-03T10:04:33.837Z,31.90
2022-12-03T10:07:21.484Z,30.90
2022-12-03T10:10:14.835Z,34.40
2022-12-03T10:13:01.797Z,38.10
2022-12-03T10:15:48.818Z,33.90
2022-12-03T10:18:41.408Z,37.50
2022-12-03T10:21:44.225Z,36.00
2022-12-03T10:24:39.147Z,31.60
2022-12-03T10:30:37.881Z,30.60
2022-12-03T10:33:29.356Z,30.70
2022-12-03T10:36:26.788Z,38.10
2022-12-03T10:39:16.935Z,31.10
2022-12-03T10:42:16.719Z,34.50
2022-12-03T10:45:20.809Z,33.60
2022-12-03T10:48:15.835Z,35.10
2022-12-03T10:51:02.206Z,36.10
2022-12-03T10:53:49.853Z,44.10
2022-12-03T10:56:36.500Z,32.00
2022-12-03T10:59:28.809Z,36.80
2022-12-03T11:05:33.550Z,27.40
2022-12-03T11:08:24.735Z,36.10
2022-12-03T11:11:20.079Z,39.80
2022-12-03T11:14:06.703Z,37.60
2022-12-03T11:16:53.919Z,40.20
2022-12-03T11:19:40.527Z,42.30
2022-12-03T11:22:29.432Z,37.40
2022-12-03T11:25:25.572Z,29.80
2022-12-03T11:28:15.409Z,40.80
2022-12-03T11:31:10.058Z,43.70
2022-12-03T11:34:16.400Z,41.40
2022-12-03T11:37:12.490Z,46.90
2022-12-03T11:40:03.610Z,41.00
2022-12-03T11:42:50.632Z,41.20
2022-12-03T11:45:38.546Z,45.70
2022-12-03T11:48:25.302Z,43.80
2022-12-03T11:51:14.326Z,41.70
2022-12-03T11:54:03.441Z,34.00
2022-12-03T12:00:19.666Z,41.10
2022-12-03T12:03:40.709Z,40.60
2022-12-03T12:06:43.043Z,39.70
2022-12-03T12:09:50.189Z,51.50
2022-12-03T12:12:54.379Z,40.50
2022-12-03T12:15:52.985Z,41.40
2022-12-03T12:18:39.818Z,34.80
2022-12-03T12:22:16.853Z,33.20
2022-12-03T12:25:27.011Z,42.40
2022-12-03T12:28:13.801Z,44.10
2022-12-03T12:31:05.586Z,44.90
2022-12-03T12:37:36.112Z,47.70
2022-12-03T12:40:28.130Z,49.90
2022-12-03T12:43:30.740Z,45.50
2022-12-03T12:46:46.509Z,35.80
2022-12-03T12:49:27.091Z,40.40
2022-12-03T12:55:17.984Z,40.60
2022-12-03T12:58:23.856Z,43.70
2022-12-03T13:01:23.618Z,37.80
2022-12-03T13:04:15.178Z,36.20
2022-12-03T13:07:02.256Z,45.00
2022-12-03T13:09:56.883Z,43.20
2022-12-03T13:12:44.565Z,44.20
2022-12-03T13:15:51.738Z,42.60
2022-12-03T13:18:45.634Z,44.80
2022-12-03T13:21:32.466Z,42.90
2022-12-03T13:28:18.752Z,42.40
2022-12-03T13:31:23.333Z,45.00
2022-12-03T13:34:19.266Z,36.50
2022-12-03T13:37:20.126Z,42.90
2022-12-03T13:40:25.625Z,46.90
2022-12-03T13:43:14.526Z,44.40
2022-12-03T13:49:47.277Z,39.50
2022-12-03T13:52:34.561Z,44.30
2022-12-03T13:55:29.313Z,47.80
2022-12-03T13:58:16.283Z,35.60
2022-12-03T14:01:02.948Z,38.80
2022-12-03T14:03:50.000Z,42.80
2022-12-03T14:06:38.632Z,46.20
2022-12-03T14:09:25.857Z,39.70
2022-12-03T14:12:29.076Z,25.90
2022-12-03T14:15:15.814Z,38.80
2022-12-03T14:18:08.928Z,33.00
2022-12-03T14:21:00.793Z,39.90
2022-12-03T14:23:47.717Z,35.70
2022-12-03T14:26:40.655Z,38.60
2022-12-03T14:29:29.519Z,35.00
2022-12-03T14:32:36.434Z,40.40
2022-12-03T14:35:23.462Z,38.80
2022-12-03T14:38:10.138Z,36.70
2022-12-03T14:40:57.225Z,34.70
2022-12-03T14:43:44.067Z,41.10
2022-12-03T14:46:31.882Z,43.00
2022-12-03T14:49:18.791Z,45.40
2022-12-03T14:52:11.333Z,41.70
2022-12-03T14:54:58.569Z,27.90
2022-12-03T14:57:45.640Z,41.40
2022-12-03T15:00:32.601Z,33.40
2022-12-03T15:03:19.601Z,38.80
2022-12-03T15:06:06.335Z,41.50
2022-12-03T15:08:53.243Z,38.70
2022-12-03T15:11:45.927Z,33.30
2022-12-03T15:14:47.733Z,25.70
2022-12-03T15:17:35.934Z,24.50
2022-12-03T15:20:22.903Z,31.70
2022-12-03T15:23:14.069Z,38.30
2022-12-03T15:26:01.343Z,32.80
2022-12-03T15:28:48.550Z,33.00
2022-12-03T15:31:35.807Z,36.60
2022-12-03T15:34:34.171Z,32.50
2022-12-03T15:43:40.214Z,35.10
2022-12-03T15:46:28.124Z,37.80
2022-12-03T15:55:21.431Z,33.40
2022-12-03T15:58:08.329Z,32.90
2022-12-03T16:00:55.827Z,33.70
2022-12-03T16:06:51.241Z,36.90
2022-12-03T16:09:39.354Z,36.00
2022-12-03T16:12:39.533Z,38.70
2022-12-03T16:15:35.385Z,29.70
2022-12-03T16:18:22.404Z,39.30
2022-12-03T16:21:09.183Z,31.70
2022-12-03T16:23:56.267Z,38.60
2022-12-03T16:26:43.194Z,39.40
2022-12-03T16:29:35.841Z,34.60
2022-12-03T16:32:34.842Z,39.90
2022-12-03T16:35:22.365Z,35.00
2022-12-03T16:38:22.942Z,31.60
2022-12-03T16:41:11.868Z,31.10
2022-12-03T16:44:07.635Z,33.40
2022-12-03T16:50:27.547Z,35.60
2022-12-03T16:56:23.069Z,32.50
2022-12-03T16:59:09.760Z,31.80
2022-12-03T17:01:57.141Z,29.00
2022-12-03T17:04:43.974Z,34.20
2022-12-03T17:07:30.679Z,27.90
2022-12-03T17:10:17.372Z,33.60
2022-12-03T17:13:09.776Z,34.30
2022-12-03T17:15:57.373Z,32.80
2022-12-03T17:18:44.606Z,36.60
2022-12-03T17:21:34.823Z,26.90
2022-12-03T17:24:22.286Z,32.90
2022-12-03T17:27:09.443Z,29.00
2022-12-03T17:29:56.316Z,27.20
2022-12-03T17:32:43.358Z,36.50
2022-12-03T17:35:30.609Z,35.00
2022-12-03T17:38:18.537Z,32.20
2022-12-03T17:41:07.360Z,35.40
2022-12-03T17:43:54.117Z,34.90
2022-12-03T17:46:41.027Z,34.00
2022-12-03T17:49:31.454Z,29.90
2022-12-03T17:52:18.624Z,29.60
2022-12-03T17:55:12.836Z,29.90
2022-12-03T17:58:03.940Z,35.90
2022-12-03T18:00:50.858Z,33.60
2022-12-03T18:03:37.776Z,35.50
2022-12-03T18:06:26.457Z,36.70
2022-12-03T18:09:13.379Z,35.00
2022-12-03T18:12:00.438Z,32.70
2022-12-03T18:14:47.027Z,38.40
2022-12-03T18:17:34.349Z,32.70
2022-12-03T18:20:21.544Z,40.20
2022-12-03T18:23:08.481Z,37.50
2022-12-03T18:25:55.153Z,35.20
2022-12-03T18:28:42.280Z,22.20
2022-12-03T18:31:29.499Z,30.80
2022-12-03T18:34:16.197Z,34.10
2022-12-03T18:37:02.857Z,27.10
2022-12-03T18:39:50.028Z,31.40
2022-12-03T18:42:36.523Z,33.90
2022-12-03T18:45:23.657Z,36.00
2022-12-03T18:48:17.746Z,34.20
2022-12-03T18:51:09.205Z,34.80
2022-12-03T18:53:56.994Z,38.30
2022-12-03T18:56:43.746Z,34.20
2022-12-03T18:59:30.222Z,35.10
2022-12-03T19:02:46.027Z,30.30
2022-12-03T19:05:25.047Z,36.50
2022-12-03T19:08:15.061Z,41.80
2022-12-03T19:11:02.088Z,35.00
2022-12-03T19:13:49.126Z,33.50
2022-12-03T19:16:36.245Z,37.60
2022-12-03T19:19:27.325Z,40.10
2022-12-03T19:22:13.990Z,30.50
2022-12-03T19:25:00.853Z,38.70
2022-12-03T19:27:50.080Z,39.20
2022-12-03T19:30:37.137Z,43.90
2022-12-03T19:33:28.499Z,36.50
2022-12-03T19:36:33.492Z,33.00
2022-12-03T19:39:20.241Z,28.90
2022-12-03T19:42:06.999Z,32.80
2022-12-03T19:44:53.754Z,35.80
2022-12-03T19:47:40.495Z,34.30
2022-12-03T19:50:27.347Z,29.80
2022-12-03T19:53:13.936Z,33.20
2022-12-03T19:56:04.894Z,32.60
2022-12-03T19:58:53.989Z,32.30
2022-12-03T20:01:43.150Z,33.40
2022-12-03T20:04:30.345Z,34.60
2022-12-03T20:07:17.169Z,33.90
2022-12-03T20:10:03.850Z,34.70
2022-12-03T20:12:50.836Z,36.70
2022-12-03T20:15:37.484Z,34.30
2022-12-03T20:18:24.413Z,27.00
2022-12-03T20:21:11.703Z,29.40
2022-12-03T20:23:58.867Z,31.90
2022-12-03T20:26:45.762Z,30.40
2022-12-03T20:29:32.554Z,31.10
2022-12-03T20:32:19.312Z,31.40
2022-12-03T20:35:06.075Z,28.90
2022-12-03T20:37:52.683Z,33.30
2022-12-03T20:40:39.455Z,32.00
2022-12-03T20:43:25.925Z,30.70
2022-12-03T20:46:20.443Z,30.80
2022-12-03T20:49:07.258Z,28.00
2022-12-03T20:51:54.251Z,34.30
2022-12-03T20:54:40.714Z,29.60
2022-12-03T20:57:27.805Z,31.30
2022-12-03T21:00:14.754Z,31.50
2022-12-03T21:03:01.651Z,31.60
2022-12-03T21:05:48.346Z,35.00
2022-12-03T21:08:41.419Z,28.40
2022-12-03T21:11:32.301Z,28.70
2022-12-03T21:14:25.145Z,29.00
2022-12-03T21:17:16.439Z,32.10
2022-12-03T21:20:03.616Z,27.50
2022-12-03T21:22:50.490Z,30.10
2022-12-03T21:25:37.343Z,24.50
2022-12-03T21:28:24.126Z,26.70
2022-12-03T21:31:12.321Z,28.80
2022-12-03T21:33:58.859Z,27.70
2022-12-03T21:36:45.407Z,29.90
2022-12-03T21:39:32.180Z,29.50
2022-12-03T21:42:36.498Z,30.60
2022-12-03T21:45:25.263Z,30.10
2022-12-03T21:48:12.041Z,32.80
2022-12-03T21:50:59.357Z,30.40
2022-12-03T21:53:45.910Z,28.50
2022-12-03T21:56:33.203Z,29.30
2022-12-03T21:59:19.981Z,31.70
2022-12-03T22:02:06.720Z,28.50
2022-12-03T22:04:53.806Z,30.10
2022-12-03T22:07:41.013Z,30.20
2022-12-03T22:10:27.613Z,24.10
2022-12-03T22:13:13.985Z,25.70
2022-12-03T22:16:03.768Z,27.10
2022-12-03T22:18:50.196Z,29.10
2022-12-03T22:21:36.890Z,28.90
2022-12-03T22:24:24.314Z,25.30
2022-12-03T22:27:10.978Z,29.80
2022-12-03T22:29:57.674Z,30.50
2022-12-03T22:32:44.676Z,26.70
2022-12-03T22:35:31.332Z,26.40
2022-12-03T22:38:17.976Z,29.30
2022-12-03T22:41:05.558Z,27.70
2022-12-03T22:43:52.329Z,30.30
2022-12-03T22:46:38.835Z,28.30
2022-12-03T22:49:25.606Z,28.40
2022-12-03T22:52:12.216Z,30.60
2022-12-03T22:54:58.845Z,27.30
2022-12-03T22:57:45.272Z,28.50
2022-12-03T23:00:33.774Z,22.90
2022-12-03T23:03:20.787Z,25.10
2022-12-03T23:06:11.295Z,32.70
2022-12-03T23:08:58.654Z,30.90
2022-12-03T23:11:45.703Z,31.20
2022-12-03T23:14:32.266Z,31.40
2022-12-03T23:17:19.044Z,30.30
2022-12-03T23:20:06.034Z,31.40
2022-12-03T23:22:53.303Z,31.00
2022-12-03T23:25:40.030Z,27.70
2022-12-03T23:28:27.886Z,28.10
2022-12-03T23:31:16.878Z,31.20
2022-12-03T23:34:03.536Z,30.30
2022-12-03T23:36:50.055Z,30.30
2022-12-03T23:39:36.720Z,30.10
2022-12-03T23:42:23.645Z,31.40
2022-12-03T23:45:10.266Z,27.50
2022-12-03T23:47:58.307Z,28.30
2022-12-03T23:50:45.297Z,27.80
2022-12-03T23:53:31.985Z,27.40
2022-12-03T23:56:20.674Z,26.30
2022-12-03T23:59:07.577Z,23.10
